sensor_id;sensor_type;location;lat;lon;timestamp;temperature;humidity
8537;DHT22;4306;50.210;10.628;2023-09-19T00:00:07;16.20;99.90
8537;DHT22;4306;50.210;10.628;2023-09-19T00:02:34;16.20;99.90
8537;DHT22;4306;50.210;10.628;2023-09-19T00:05:02;16.20;99.90
8537;DHT22;4306;50.210;10.628;2023-09-19T00:07:30;16.10;99.90
8537;DHT22;4306;50.210;10.628;2023-09-19T00:09:57;16.10;99.90
8537;DHT22;4306;50.210;10.628;2023-09-19T00:12:24;16.10;99.90
8537;DHT22;4306;50.210;10.628;2023-09-19T00:14:52;16.10;99.90
8537;DHT22;4306;50.210;10.628;2023-09-19T00:17:19;16.10;99.90
8537;DHT22;4306;50.210;10.628;2023-09-19T00:19:46;16.10;99.90
8537;DHT22;4306;50.210;10.628;2023-09-19T00:22:17;16.10;99.90
8537;DHT22;4306;50.210;10.628;2023-09-19T00:24:44;16.00;99.90
8537;DHT22;4306;50.210;10.628;2023-09-19T00:27:12;16.00;99.90
8537;DHT22;4306;50.210;10.628;2023-09-19T00:29:39;16.00;99.90
8537;DHT22;4306;50.210;10.628;2023-09-19T00:32:09;16.00;99.90
8537;DHT22;4306;50.210;10.628;2023-09-19T00:34:36;16.00;99.90
8537;DHT22;4306;50.210;10.628;2023-09-19T00:37:03;16.00;99.90
8537;DHT22;4306;50.210;10.628;2023-09-19T00:39:30;15.90;99.90
8537;DHT22;4306;50.210;10.628;2023-09-19T00:41:57;15.80;99.90
8537;DHT22;4306;50.210;10.628;2023-09-19T00:44:30;15.80;99.90
8537;DHT22;4306;50.210;10.628;2023-09-19T00:46:57;15.80;99.90
8537;DHT22;4306;50.210;10.628;2023-09-19T00:49:26;15.80;99.90
8537;DHT22;4306;50.210;10.628;2023-09-19T00:51:53;15.70;99.90
8537;DHT22;4306;50.210;10.628;2023-09-19T00:54:20;15.70;99.90
8537;DHT22;4306;50.210;10.628;2023-09-19T00:56:48;15.70;99.90
8537;DHT22;4306;50.210;10.628;2023-09-19T00:59:16;15.70;99.90
8537;DHT22;4306;50.210;10.628;2023-09-19T01:01:43;15.70;99.90
8537;DHT22;4306;50.210;10.628;2023-09-19T01:04:11;15.70;99.90
8537;DHT22;4306;50.210;10.628;2023-09-19T01:06:40;15.70;99.90
8537;DHT22;4306;50.210;10.628;2023-09-19T01:09:07;15.60;99.90
8537;DHT22;4306;50.210;10.628;2023-09-19T01:11:39;15.60;99.90
8537;DHT22;4306;50.210;10.628;2023-09-19T01:14:14;15.50;99.90
8537;DHT22;4306;50.210;10.628;2023-09-19T01:16:47;15.50;99.90
8537;DHT22;4306;50.210;10.628;2023-09-19T01:19:50;15.50;99.90
8537;DHT22;4306;50.210;10.628;2023-09-19T01:22:28;15.50;99.90
8537;DHT22;4306;50.210;10.628;2023-09-19T01:28:32;15.40;99.90
8537;DHT22;4306;50.210;10.628;2023-09-19T01:31:09;15.40;99.90
8537;DHT22;4306;50.210;10.628;2023-09-19T01:33:55;15.40;99.90
8537;DHT22;4306;50.210;10.628;2023-09-19T01:36:25;15.40;99.90
8537;DHT22;4306;50.210;10.628;2023-09-19T01:38:53;15.40;99.90
8537;DHT22;4306;50.210;10.628;2023-09-19T01:41:27;15.30;99.90
8537;DHT22;4306;50.210;10.628;2023-09-19T01:43:59;15.30;99.90
8537;DHT22;4306;50.210;10.628;2023-09-19T01:46:34;15.30;99.90
8537;DHT22;4306;50.210;10.628;2023-09-19T01:49:15;15.30;99.90
8537;DHT22;4306;50.210;10.628;2023-09-19T01:51:51;15.30;99.90
8537;DHT22;4306;50.210;10.628;2023-09-19T01:54:26;15.30;99.90
8537;DHT22;4306;50.210;10.628;2023-09-19T01:56:59;15.30;99.90
8537;DHT22;4306;50.210;10.628;2023-09-19T01:59:34;15.30;99.90
8537;DHT22;4306;50.210;10.628;2023-09-19T02:02:04;15.30;99.90
8537;DHT22;4306;50.210;10.628;2023-09-19T02:04:32;15.40;99.90
8537;DHT22;4306;50.210;10.628;2023-09-19T02:07:00;15.40;99.90
8537;DHT22;4306;50.210;10.628;2023-09-19T02:09:28;15.40;99.90
8537;DHT22;4306;50.210;10.628;2023-09-19T02:11:55;15.40;99.90
8537;DHT22;4306;50.210;10.628;2023-09-19T02:14:22;15.40;99.90
8537;DHT22;4306;50.210;10.628;2023-09-19T02:16:49;15.40;99.90
8537;DHT22;4306;50.210;10.628;2023-09-19T02:19:17;15.40;99.90
8537;DHT22;4306;50.210;10.628;2023-09-19T02:21:46;15.40;99.90
8537;DHT22;4306;50.210;10.628;2023-09-19T02:24:14;15.40;99.90
8537;DHT22;4306;50.210;10.628;2023-09-19T02:26:41;15.40;99.90
8537;DHT22;4306;50.210;10.628;2023-09-19T02:29:09;15.40;99.90
8537;DHT22;4306;50.210;10.628;2023-09-19T02:31:36;15.40;99.90
8537;DHT22;4306;50.210;10.628;2023-09-19T02:34:03;15.30;99.90
8537;DHT22;4306;50.210;10.628;2023-09-19T02:36:34;15.40;99.90
8537;DHT22;4306;50.210;10.628;2023-09-19T02:39:01;15.40;99.90
8537;DHT22;4306;50.210;10.628;2023-09-19T02:41:30;15.30;99.90
8537;DHT22;4306;50.210;10.628;2023-09-19T02:43:58;15.30;99.90
8537;DHT22;4306;50.210;10.628;2023-09-19T02:46:27;15.30;99.90
8537;DHT22;4306;50.210;10.628;2023-09-19T02:48:54;15.30;99.90
8537;DHT22;4306;50.210;10.628;2023-09-19T02:51:21;15.30;99.90
8537;DHT22;4306;50.210;10.628;2023-09-19T02:53:50;15.30;99.90
8537;DHT22;4306;50.210;10.628;2023-09-19T02:56:18;15.30;99.90
8537;DHT22;4306;50.210;10.628;2023-09-19T02:58:45;15.40;99.90
8537;DHT22;4306;50.210;10.628;2023-09-19T03:01:14;15.40;99.90
8537;DHT22;4306;50.210;10.628;2023-09-19T03:03:41;15.10;99.90
8537;DHT22;4306;50.210;10.628;2023-09-19T03:06:08;15.30;99.90
8537;DHT22;4306;50.210;10.628;2023-09-19T03:08:36;15.40;99.90
8537;DHT22;4306;50.210;10.628;2023-09-19T03:11:06;15.30;99.90
8537;DHT22;4306;50.210;10.628;2023-09-19T03:13:37;15.30;99.90
8537;DHT22;4306;50.210;10.628;2023-09-19T03:16:05;15.30;99.90
8537;DHT22;4306;50.210;10.628;2023-09-19T03:18:33;15.30;99.90
8537;DHT22;4306;50.210;10.628;2023-09-19T03:21:00;15.30;99.90
8537;DHT22;4306;50.210;10.628;2023-09-19T03:23:28;15.30;99.90
8537;DHT22;4306;50.210;10.628;2023-09-19T03:25:55;15.30;99.90
8537;DHT22;4306;50.210;10.628;2023-09-19T03:28:25;15.40;99.90
8537;DHT22;4306;50.210;10.628;2023-09-19T03:31:00;15.40;99.90
8537;DHT22;4306;50.210;10.628;2023-09-19T03:33:26;15.40;99.90
8537;DHT22;4306;50.210;10.628;2023-09-19T03:35:54;15.40;99.90
8537;DHT22;4306;50.210;10.628;2023-09-19T03:38:24;15.40;99.90
8537;DHT22;4306;50.210;10.628;2023-09-19T03:40:51;15.40;99.90
8537;DHT22;4306;50.210;10.628;2023-09-19T03:43:18;15.40;99.90
8537;DHT22;4306;50.210;10.628;2023-09-19T03:45:46;15.40;99.90
8537;DHT22;4306;50.210;10.628;2023-09-19T03:48:14;15.40;99.90
8537;DHT22;4306;50.210;10.628;2023-09-19T03:50:41;15.40;99.90
8537;DHT22;4306;50.210;10.628;2023-09-19T03:53:09;15.30;99.90
8537;DHT22;4306;50.210;10.628;2023-09-19T03:55:36;15.30;99.90
8537;DHT22;4306;50.210;10.628;2023-09-19T03:58:04;15.30;99.90
8537;DHT22;4306;50.210;10.628;2023-09-19T04:00:31;15.30;99.90
8537;DHT22;4306;50.210;10.628;2023-09-19T04:03:01;15.30;99.90
8537;DHT22;4306;50.210;10.628;2023-09-19T04:05:31;15.40;99.90
8537;DHT22;4306;50.210;10.628;2023-09-19T04:07:59;15.40;99.90
8537;DHT22;4306;50.210;10.628;2023-09-19T04:10:26;15.30;99.90
8537;DHT22;4306;50.210;10.628;2023-09-19T04:12:54;15.40;99.90
8537;DHT22;4306;50.210;10.628;2023-09-19T04:15:22;15.40;99.90
8537;DHT22;4306;50.210;10.628;2023-09-19T04:17:49;15.40;99.90
8537;DHT22;4306;50.210;10.628;2023-09-19T04:20:18;15.40;99.90
8537;DHT22;4306;50.210;10.628;2023-09-19T04:22:48;15.50;99.90
8537;DHT22;4306;50.210;10.628;2023-09-19T04:25:15;15.50;99.90
8537;DHT22;4306;50.210;10.628;2023-09-19T04:27:44;15.50;99.90
8537;DHT22;4306;50.210;10.628;2023-09-19T04:30:12;15.50;99.90
8537;DHT22;4306;50.210;10.628;2023-09-19T04:32:40;15.50;99.90
8537;DHT22;4306;50.210;10.628;2023-09-19T04:35:08;15.60;99.90
8537;DHT22;4306;50.210;10.628;2023-09-19T04:37:39;15.60;99.90
8537;DHT22;4306;50.210;10.628;2023-09-19T04:40:08;15.60;99.90
8537;DHT22;4306;50.210;10.628;2023-09-19T04:42:39;15.60;99.90
8537;DHT22;4306;50.210;10.628;2023-09-19T04:45:07;15.60;99.90
8537;DHT22;4306;50.210;10.628;2023-09-19T04:47:35;15.60;99.90
8537;DHT22;4306;50.210;10.628;2023-09-19T04:50:05;15.60;99.90
8537;DHT22;4306;50.210;10.628;2023-09-19T04:52:33;15.60;99.90
8537;DHT22;4306;50.210;10.628;2023-09-19T04:55:02;15.60;99.90
8537;DHT22;4306;50.210;10.628;2023-09-19T04:57:30;15.60;99.90
8537;DHT22;4306;50.210;10.628;2023-09-19T04:59:57;15.60;99.90
8537;DHT22;4306;50.210;10.628;2023-09-19T05:02:24;15.60;99.90
8537;DHT22;4306;50.210;10.628;2023-09-19T05:04:51;15.60;99.90
8537;DHT22;4306;50.210;10.628;2023-09-19T05:07:20;15.60;99.90
8537;DHT22;4306;50.210;10.628;2023-09-19T05:09:51;15.50;99.90
8537;DHT22;4306;50.210;10.628;2023-09-19T05:12:20;15.50;99.90
8537;DHT22;4306;50.210;10.628;2023-09-19T05:14:47;15.40;99.90
8537;DHT22;4306;50.210;10.628;2023-09-19T05:17:14;15.40;99.90
8537;DHT22;4306;50.210;10.628;2023-09-19T05:19:42;15.40;99.90
8537;DHT22;4306;50.210;10.628;2023-09-19T05:22:09;15.40;99.90
8537;DHT22;4306;50.210;10.628;2023-09-19T05:24:38;15.40;99.90
8537;DHT22;4306;50.210;10.628;2023-09-19T05:27:05;15.40;99.90
8537;DHT22;4306;50.210;10.628;2023-09-19T05:29:34;15.40;99.90
8537;DHT22;4306;50.210;10.628;2023-09-19T05:32:01;15.40;99.90
8537;DHT22;4306;50.210;10.628;2023-09-19T05:34:29;15.40;99.90
8537;DHT22;4306;50.210;10.628;2023-09-19T05:36:56;15.50;99.90
8537;DHT22;4306;50.210;10.628;2023-09-19T05:39:23;15.50;99.90
8537;DHT22;4306;50.210;10.628;2023-09-19T05:41:50;15.50;99.90
8537;DHT22;4306;50.210;10.628;2023-09-19T05:44:17;15.50;99.90
8537;DHT22;4306;50.210;10.628;2023-09-19T05:46:45;15.50;99.90
8537;DHT22;4306;50.210;10.628;2023-09-19T05:49:13;15.50;99.90
8537;DHT22;4306;50.210;10.628;2023-09-19T05:51:41;15.60;99.90
8537;DHT22;4306;50.210;10.628;2023-09-19T05:54:08;15.60;99.90
8537;DHT22;4306;50.210;10.628;2023-09-19T05:56:36;15.70;99.90
8537;DHT22;4306;50.210;10.628;2023-09-19T05:59:03;15.70;99.90
8537;DHT22;4306;50.210;10.628;2023-09-19T06:01:30;15.70;99.90
8537;DHT22;4306;50.210;10.628;2023-09-19T06:03:59;15.80;99.90
8537;DHT22;4306;50.210;10.628;2023-09-19T06:06:26;15.90;99.90
8537;DHT22;4306;50.210;10.628;2023-09-19T06:08:53;15.90;99.90
8537;DHT22;4306;50.210;10.628;2023-09-19T06:11:22;16.00;99.90
8537;DHT22;4306;50.210;10.628;2023-09-19T06:13:52;16.10;99.90
8537;DHT22;4306;50.210;10.628;2023-09-19T06:16:18;16.10;99.90
8537;DHT22;4306;50.210;10.628;2023-09-19T06:18:46;16.10;99.90
8537;DHT22;4306;50.210;10.628;2023-09-19T06:21:15;16.10;99.90
8537;DHT22;4306;50.210;10.628;2023-09-19T06:23:42;16.20;99.90
8537;DHT22;4306;50.210;10.628;2023-09-19T06:26:09;16.20;99.90
8537;DHT22;4306;50.210;10.628;2023-09-19T06:28:35;16.30;99.90
8537;DHT22;4306;50.210;10.628;2023-09-19T06:31:02;16.30;99.90
8537;DHT22;4306;50.210;10.628;2023-09-19T06:33:35;16.30;99.90
8537;DHT22;4306;50.210;10.628;2023-09-19T06:36:04;16.30;99.90
8537;DHT22;4306;50.210;10.628;2023-09-19T06:38:33;16.30;99.90
8537;DHT22;4306;50.210;10.628;2023-09-19T06:41:02;16.30;99.90
8537;DHT22;4306;50.210;10.628;2023-09-19T06:43:30;16.30;99.90
8537;DHT22;4306;50.210;10.628;2023-09-19T06:45:58;16.40;99.90
8537;DHT22;4306;50.210;10.628;2023-09-19T06:48:25;16.40;99.90
8537;DHT22;4306;50.210;10.628;2023-09-19T06:50:54;16.30;99.90
8537;DHT22;4306;50.210;10.628;2023-09-19T06:53:22;16.40;99.90
8537;DHT22;4306;50.210;10.628;2023-09-19T06:55:51;16.40;99.90
8537;DHT22;4306;50.210;10.628;2023-09-19T06:58:18;16.40;99.90
8537;DHT22;4306;50.210;10.628;2023-09-19T07:00:46;16.50;99.90
8537;DHT22;4306;50.210;10.628;2023-09-19T07:03:13;16.60;99.90
8537;DHT22;4306;50.210;10.628;2023-09-19T07:05:41;16.70;99.90
8537;DHT22;4306;50.210;10.628;2023-09-19T07:08:09;16.60;99.90
8537;DHT22;4306;50.210;10.628;2023-09-19T07:10:38;16.60;99.90
8537;DHT22;4306;50.210;10.628;2023-09-19T07:13:08;16.80;99.90
8537;DHT22;4306;50.210;10.628;2023-09-19T07:15:38;16.80;99.90
8537;DHT22;4306;50.210;10.628;2023-09-19T07:18:12;16.80;99.90
8537;DHT22;4306;50.210;10.628;2023-09-19T07:20:40;16.80;99.90
8537;DHT22;4306;50.210;10.628;2023-09-19T07:23:14;16.90;99.90
8537;DHT22;4306;50.210;10.628;2023-09-19T07:25:41;17.00;99.90
8537;DHT22;4306;50.210;10.628;2023-09-19T07:28:10;17.00;99.90
8537;DHT22;4306;50.210;10.628;2023-09-19T07:30:37;17.10;99.90
8537;DHT22;4306;50.210;10.628;2023-09-19T07:33:04;17.10;99.90
8537;DHT22;4306;50.210;10.628;2023-09-19T07:35:32;17.10;99.90
8537;DHT22;4306;50.210;10.628;2023-09-19T07:37:59;17.10;99.90
8537;DHT22;4306;50.210;10.628;2023-09-19T07:40:28;17.10;99.90
8537;DHT22;4306;50.210;10.628;2023-09-19T07:42:55;17.20;99.90
8537;DHT22;4306;50.210;10.628;2023-09-19T07:45:24;17.20;99.90
8537;DHT22;4306;50.210;10.628;2023-09-19T07:47:51;17.20;99.90
8537;DHT22;4306;50.210;10.628;2023-09-19T07:50:19;17.30;99.90
8537;DHT22;4306;50.210;10.628;2023-09-19T07:52:46;17.40;99.90
8537;DHT22;4306;50.210;10.628;2023-09-19T07:55:13;17.50;99.90
8537;DHT22;4306;50.210;10.628;2023-09-19T07:57:42;17.30;99.90
8537;DHT22;4306;50.210;10.628;2023-09-19T08:00:10;17.50;99.90
8537;DHT22;4306;50.210;10.628;2023-09-19T08:02:39;17.60;99.90
8537;DHT22;4306;50.210;10.628;2023-09-19T08:05:08;17.60;99.90
8537;DHT22;4306;50.210;10.628;2023-09-19T08:07:36;17.70;99.90
8537;DHT22;4306;50.210;10.628;2023-09-19T08:10:04;17.70;99.90
8537;DHT22;4306;50.210;10.628;2023-09-19T08:12:33;17.80;99.90
8537;DHT22;4306;50.210;10.628;2023-09-19T08:15:01;17.90;99.90
8537;DHT22;4306;50.210;10.628;2023-09-19T08:17:28;18.00;99.90
8537;DHT22;4306;50.210;10.628;2023-09-19T08:19:57;17.90;99.90
8537;DHT22;4306;50.210;10.628;2023-09-19T08:22:24;17.90;99.30
8537;DHT22;4306;50.210;10.628;2023-09-19T08:24:51;17.90;99.40
8537;DHT22;4306;50.210;10.628;2023-09-19T08:27:17;17.90;98.50
8537;DHT22;4306;50.210;10.628;2023-09-19T08:29:45;18.00;98.70
8537;DHT22;4306;50.210;10.628;2023-09-19T08:32:12;18.00;97.50
8537;DHT22;4306;50.210;10.628;2023-09-19T08:34:40;18.00;97.10
8537;DHT22;4306;50.210;10.628;2023-09-19T08:37:08;18.10;97.10
8537;DHT22;4306;50.210;10.628;2023-09-19T08:39:35;18.10;96.40
8537;DHT22;4306;50.210;10.628;2023-09-19T08:42:03;18.30;97.50
8537;DHT22;4306;50.210;10.628;2023-09-19T08:44:30;18.30;97.30
8537;DHT22;4306;50.210;10.628;2023-09-19T08:47:08;18.40;97.10
8537;DHT22;4306;50.210;10.628;2023-09-19T08:49:41;18.40;97.10
8537;DHT22;4306;50.210;10.628;2023-09-19T08:52:19;18.50;96.20
8537;DHT22;4306;50.210;10.628;2023-09-19T08:54:51;18.50;96.80
8537;DHT22;4306;50.210;10.628;2023-09-19T08:57:18;18.50;95.70
8537;DHT22;4306;50.210;10.628;2023-09-19T08:59:48;18.50;96.20
8537;DHT22;4306;50.210;10.628;2023-09-19T09:02:15;18.60;95.50
8537;DHT22;4306;50.210;10.628;2023-09-19T09:04:45;18.50;95.70
8537;DHT22;4306;50.210;10.628;2023-09-19T09:07:14;18.50;96.60
8537;DHT22;4306;50.210;10.628;2023-09-19T09:09:42;18.60;95.70
8537;DHT22;4306;50.210;10.628;2023-09-19T09:12:12;18.60;95.60
8537;DHT22;4306;50.210;10.628;2023-09-19T09:14:39;18.60;95.90
8537;DHT22;4306;50.210;10.628;2023-09-19T09:17:07;18.80;96.30
8537;DHT22;4306;50.210;10.628;2023-09-19T09:19:34;18.70;95.10
8537;DHT22;4306;50.210;10.628;2023-09-19T09:22:08;18.40;95.60
8537;DHT22;4306;50.210;10.628;2023-09-19T09:24:37;18.20;95.00
8537;DHT22;4306;50.210;10.628;2023-09-19T09:27:06;18.40;95.00
8537;DHT22;4306;50.210;10.628;2023-09-19T09:29:41;18.40;95.00
8537;DHT22;4306;50.210;10.628;2023-09-19T09:32:19;18.30;95.50
8537;DHT22;4306;50.210;10.628;2023-09-19T09:34:49;18.10;95.10
8537;DHT22;4306;50.210;10.628;2023-09-19T09:37:17;18.20;95.60
8537;DHT22;4306;50.210;10.628;2023-09-19T09:39:51;18.30;95.30
8537;DHT22;4306;50.210;10.628;2023-09-19T09:42:34;18.80;94.60
8537;DHT22;4306;50.210;10.628;2023-09-19T09:45:16;18.50;94.80
8537;DHT22;4306;50.210;10.628;2023-09-19T09:47:44;18.60;93.90
8537;DHT22;4306;50.210;10.628;2023-09-19T09:50:30;18.80;93.50
8537;DHT22;4306;50.210;10.628;2023-09-19T09:53:23;18.90;93.30
8537;DHT22;4306;50.210;10.628;2023-09-19T09:56:02;19.00;93.00
8537;DHT22;4306;50.210;10.628;2023-09-19T09:58:31;19.00;91.80
8537;DHT22;4306;50.210;10.628;2023-09-19T10:00:59;18.90;90.80
8537;DHT22;4306;50.210;10.628;2023-09-19T10:03:33;18.80;90.70
8537;DHT22;4306;50.210;10.628;2023-09-19T10:06:05;18.50;89.30
8537;DHT22;4306;50.210;10.628;2023-09-19T10:08:58;18.60;90.20
8537;DHT22;4306;50.210;10.628;2023-09-19T10:11:33;18.60;90.00
8537;DHT22;4306;50.210;10.628;2023-09-19T10:14:03;18.60;89.00
8537;DHT22;4306;50.210;10.628;2023-09-19T10:16:32;18.70;89.40
8537;DHT22;4306;50.210;10.628;2023-09-19T10:19:02;18.70;90.70
8537;DHT22;4306;50.210;10.628;2023-09-19T10:21:53;18.70;90.00
8537;DHT22;4306;50.210;10.628;2023-09-19T10:24:22;18.60;87.90
8537;DHT22;4306;50.210;10.628;2023-09-19T10:26:52;18.60;89.20
8537;DHT22;4306;50.210;10.628;2023-09-19T10:29:21;18.70;88.60
8537;DHT22;4306;50.210;10.628;2023-09-19T10:31:49;18.80;90.10
8537;DHT22;4306;50.210;10.628;2023-09-19T10:34:19;18.80;90.00
8537;DHT22;4306;50.210;10.628;2023-09-19T10:36:48;18.90;89.70
8537;DHT22;4306;50.210;10.628;2023-09-19T10:39:17;18.90;90.50
8537;DHT22;4306;50.210;10.628;2023-09-19T10:41:51;19.00;90.10
8537;DHT22;4306;50.210;10.628;2023-09-19T10:44:23;19.00;87.40
8537;DHT22;4306;50.210;10.628;2023-09-19T10:46:51;18.90;88.50
8537;DHT22;4306;50.210;10.628;2023-09-19T10:49:19;18.90;87.70
8537;DHT22;4306;50.210;10.628;2023-09-19T10:51:49;19.00;85.30
8537;DHT22;4306;50.210;10.628;2023-09-19T10:54:18;18.80;82.50
8537;DHT22;4306;50.210;10.628;2023-09-19T10:56:48;18.60;83.70
8537;DHT22;4306;50.210;10.628;2023-09-19T10:59:20;18.70;84.70
8537;DHT22;4306;50.210;10.628;2023-09-19T11:01:48;18.80;83.80
8537;DHT22;4306;50.210;10.628;2023-09-19T11:04:26;18.90;85.00
8537;DHT22;4306;50.210;10.628;2023-09-19T11:07:04;19.00;87.00
8537;DHT22;4306;50.210;10.628;2023-09-19T11:09:44;19.10;87.90
8537;DHT22;4306;50.210;10.628;2023-09-19T11:12:12;19.10;88.90
8537;DHT22;4306;50.210;10.628;2023-09-19T11:14:42;19.30;90.00
8537;DHT22;4306;50.210;10.628;2023-09-19T11:17:40;19.30;88.70
8537;DHT22;4306;50.210;10.628;2023-09-19T11:20:24;19.30;88.80
8537;DHT22;4306;50.210;10.628;2023-09-19T11:23:22;19.20;88.20
8537;DHT22;4306;50.210;10.628;2023-09-19T11:25:51;19.00;86.20
8537;DHT22;4306;50.210;10.628;2023-09-19T11:28:32;19.00;87.60
8537;DHT22;4306;50.210;10.628;2023-09-19T11:31:41;19.10;87.90
8537;DHT22;4306;50.210;10.628;2023-09-19T11:34:41;19.30;86.60
8537;DHT22;4306;50.210;10.628;2023-09-19T11:40:28;19.00;84.00
8537;DHT22;4306;50.210;10.628;2023-09-19T11:42:56;19.00;81.00
8537;DHT22;4306;50.210;10.628;2023-09-19T11:48:33;18.70;78.50
8537;DHT22;4306;50.210;10.628;2023-09-19T11:51:15;18.70;80.60
8537;DHT22;4306;50.210;10.628;2023-09-19T11:53:46;18.80;81.70
8537;DHT22;4306;50.210;10.628;2023-09-19T11:56:16;18.90;79.80
8537;DHT22;4306;50.210;10.628;2023-09-19T11:58:44;19.10;83.00
8537;DHT22;4306;50.210;10.628;2023-09-19T12:01:13;19.30;81.80
8537;DHT22;4306;50.210;10.628;2023-09-19T12:03:46;19.30;83.00
8537;DHT22;4306;50.210;10.628;2023-09-19T12:06:15;19.50;82.40
8537;DHT22;4306;50.210;10.628;2023-09-19T12:08:43;19.30;80.10
8537;DHT22;4306;50.210;10.628;2023-09-19T12:11:13;19.10;80.20
8537;DHT22;4306;50.210;10.628;2023-09-19T12:13:45;19.30;82.50
8537;DHT22;4306;50.210;10.628;2023-09-19T12:16:15;19.50;83.20
8537;DHT22;4306;50.210;10.628;2023-09-19T12:18:44;19.60;82.20
8537;DHT22;4306;50.210;10.628;2023-09-19T12:21:23;19.70;82.80
8537;DHT22;4306;50.210;10.628;2023-09-19T12:24:07;19.70;82.90
8537;DHT22;4306;50.210;10.628;2023-09-19T12:26:42;19.70;79.30
8537;DHT22;4306;50.210;10.628;2023-09-19T12:29:14;19.50;77.50
8537;DHT22;4306;50.210;10.628;2023-09-19T12:31:50;19.60;78.20
8537;DHT22;4306;50.210;10.628;2023-09-19T12:34:21;19.60;78.80
8537;DHT22;4306;50.210;10.628;2023-09-19T12:36:48;19.80;80.90
8537;DHT22;4306;50.210;10.628;2023-09-19T12:39:24;19.90;81.10
8537;DHT22;4306;50.210;10.628;2023-09-19T12:41:53;19.90;78.40
8537;DHT22;4306;50.210;10.628;2023-09-19T12:44:20;20.00;79.50
8537;DHT22;4306;50.210;10.628;2023-09-19T12:46:50;20.10;79.70
8537;DHT22;4306;50.210;10.628;2023-09-19T12:49:18;20.20;80.50
8537;DHT22;4306;50.210;10.628;2023-09-19T12:51:47;20.20;78.70
8537;DHT22;4306;50.210;10.628;2023-09-19T12:54:14;20.20;78.70
8537;DHT22;4306;50.210;10.628;2023-09-19T12:56:43;20.20;77.60
8537;DHT22;4306;50.210;10.628;2023-09-19T12:59:13;20.30;76.80
8537;DHT22;4306;50.210;10.628;2023-09-19T13:01:42;20.40;76.10
8537;DHT22;4306;50.210;10.628;2023-09-19T13:04:16;20.60;75.30
8537;DHT22;4306;50.210;10.628;2023-09-19T13:06:47;20.40;73.50
8537;DHT22;4306;50.210;10.628;2023-09-19T13:09:15;20.50;73.00
8537;DHT22;4306;50.210;10.628;2023-09-19T13:11:43;20.40;74.30
8537;DHT22;4306;50.210;10.628;2023-09-19T13:14:17;20.40;72.70
8537;DHT22;4306;50.210;10.628;2023-09-19T13:16:58;20.50;73.30
8537;DHT22;4306;50.210;10.628;2023-09-19T13:19:39;20.50;71.00
8537;DHT22;4306;50.210;10.628;2023-09-19T13:22:38;20.50;72.20
8537;DHT22;4306;50.210;10.628;2023-09-19T13:25:07;20.50;71.50
8537;DHT22;4306;50.210;10.628;2023-09-19T13:27:39;20.40;70.80
8537;DHT22;4306;50.210;10.628;2023-09-19T13:30:07;20.40;70.30
8537;DHT22;4306;50.210;10.628;2023-09-19T13:32:34;20.50;70.50
8537;DHT22;4306;50.210;10.628;2023-09-19T13:35:01;20.50;72.30
8537;DHT22;4306;50.210;10.628;2023-09-19T13:37:28;20.50;71.50
8537;DHT22;4306;50.210;10.628;2023-09-19T13:39:57;20.50;71.70
8537;DHT22;4306;50.210;10.628;2023-09-19T13:42:25;20.50;70.50
8537;DHT22;4306;50.210;10.628;2023-09-19T13:44:55;20.50;71.30
8537;DHT22;4306;50.210;10.628;2023-09-19T13:47:22;20.40;70.50
8537;DHT22;4306;50.210;10.628;2023-09-19T13:49:52;20.40;70.40
8537;DHT22;4306;50.210;10.628;2023-09-19T13:52:19;20.30;71.60
8537;DHT22;4306;50.210;10.628;2023-09-19T13:54:47;20.40;71.70
8537;DHT22;4306;50.210;10.628;2023-09-19T13:57:16;20.40;72.70
8537;DHT22;4306;50.210;10.628;2023-09-19T13:59:43;20.50;73.40
8537;DHT22;4306;50.210;10.628;2023-09-19T14:02:10;20.50;74.00
8537;DHT22;4306;50.210;10.628;2023-09-19T14:04:38;20.60;72.40
8537;DHT22;4306;50.210;10.628;2023-09-19T14:07:06;20.60;74.80
8537;DHT22;4306;50.210;10.628;2023-09-19T14:09:34;20.80;74.00
8537;DHT22;4306;50.210;10.628;2023-09-19T14:12:02;20.80;73.80
8537;DHT22;4306;50.210;10.628;2023-09-19T14:14:30;20.70;73.30
8537;DHT22;4306;50.210;10.628;2023-09-19T14:16:57;20.60;73.70
8537;DHT22;4306;50.210;10.628;2023-09-19T14:19:26;20.70;74.30
8537;DHT22;4306;50.210;10.628;2023-09-19T14:21:53;20.80;75.40
8537;DHT22;4306;50.210;10.628;2023-09-19T14:24:21;20.90;75.70
8537;DHT22;4306;50.210;10.628;2023-09-19T14:26:48;20.70;72.80
8537;DHT22;4306;50.210;10.628;2023-09-19T14:29:16;20.60;73.30
8537;DHT22;4306;50.210;10.628;2023-09-19T14:31:44;20.70;75.30
8537;DHT22;4306;50.210;10.628;2023-09-19T14:34:11;20.80;74.20
8537;DHT22;4306;50.210;10.628;2023-09-19T14:36:39;20.90;75.00
8537;DHT22;4306;50.210;10.628;2023-09-19T14:39:06;20.90;74.90
8537;DHT22;4306;50.210;10.628;2023-09-19T14:41:33;20.70;73.80
8537;DHT22;4306;50.210;10.628;2023-09-19T14:44:02;20.70;76.20
8537;DHT22;4306;50.210;10.628;2023-09-19T14:46:29;20.90;76.70
8537;DHT22;4306;50.210;10.628;2023-09-19T14:48:58;20.90;76.50
8537;DHT22;4306;50.210;10.628;2023-09-19T14:51:25;20.90;77.20
8537;DHT22;4306;50.210;10.628;2023-09-19T14:53:53;20.90;76.60
8537;DHT22;4306;50.210;10.628;2023-09-19T14:56:20;20.90;77.00
8537;DHT22;4306;50.210;10.628;2023-09-19T14:58:49;20.80;75.90
8537;DHT22;4306;50.210;10.628;2023-09-19T15:01:16;20.80;76.30
8537;DHT22;4306;50.210;10.628;2023-09-19T15:03:43;20.70;76.90
8537;DHT22;4306;50.210;10.628;2023-09-19T15:06:13;20.70;77.40
8537;DHT22;4306;50.210;10.628;2023-09-19T15:08:44;20.70;77.60
8537;DHT22;4306;50.210;10.628;2023-09-19T15:11:13;20.70;78.00
8537;DHT22;4306;50.210;10.628;2023-09-19T15:13:42;20.40;77.10
8537;DHT22;4306;50.210;10.628;2023-09-19T15:16:11;20.50;77.90
8537;DHT22;4306;50.210;10.628;2023-09-19T15:18:40;20.60;78.00
8537;DHT22;4306;50.210;10.628;2023-09-19T15:21:09;20.50;77.30
8537;DHT22;4306;50.210;10.628;2023-09-19T15:23:38;20.50;78.10
8537;DHT22;4306;50.210;10.628;2023-09-19T15:26:06;20.60;79.10
8537;DHT22;4306;50.210;10.628;2023-09-19T15:28:34;20.60;79.20
8537;DHT22;4306;50.210;10.628;2023-09-19T15:31:03;20.60;79.30
8537;DHT22;4306;50.210;10.628;2023-09-19T15:33:31;20.40;78.30
8537;DHT22;4306;50.210;10.628;2023-09-19T15:36:03;20.50;79.10
8537;DHT22;4306;50.210;10.628;2023-09-19T15:38:31;20.40;78.00
8537;DHT22;4306;50.210;10.628;2023-09-19T15:40:59;20.40;78.70
8537;DHT22;4306;50.210;10.628;2023-09-19T15:43:26;20.40;78.60
8537;DHT22;4306;50.210;10.628;2023-09-19T15:45:53;20.30;78.00
8537;DHT22;4306;50.210;10.628;2023-09-19T15:48:20;20.40;78.60
8537;DHT22;4306;50.210;10.628;2023-09-19T15:50:47;20.40;78.90
8537;DHT22;4306;50.210;10.628;2023-09-19T15:53:14;20.40;78.90
8537;DHT22;4306;50.210;10.628;2023-09-19T15:55:42;20.10;78.60
8537;DHT22;4306;50.210;10.628;2023-09-19T15:58:12;20.40;78.90
8537;DHT22;4306;50.210;10.628;2023-09-19T16:00:42;20.00;77.90
8537;DHT22;4306;50.210;10.628;2023-09-19T16:03:10;20.20;77.70
8537;DHT22;4306;50.210;10.628;2023-09-19T16:05:37;20.20;78.50
8537;DHT22;4306;50.210;10.628;2023-09-19T16:08:05;20.20;79.20
8537;DHT22;4306;50.210;10.628;2023-09-19T16:10:34;20.20;78.80